createdAt,value
2022-08-11T00:01:05.565Z,3.90
2022-08-11T00:03:22.677Z,3.80
2022-08-11T00:05:59.219Z,4.03
2022-08-11T00:08:16.395Z,4.30
2022-08-11T00:10:33.524Z,3.92
2022-08-11T00:12:50.834Z,4.25
2022-08-11T00:15:07.961Z,3.80
2022-08-11T00:17:26.245Z,4.03
2022-08-11T00:20:11.733Z,4.60
2022-08-11T00:22:20.594Z,4.28
2022-08-11T00:24:52.038Z,3.83
2022-08-11T00:27:14.318Z,4.43
2022-08-11T00:29:31.703Z,4.15
2022-08-11T00:31:49.778Z,4.20
2022-08-11T00:34:07.212Z,4.13
2022-08-11T00:36:25.657Z,3.95
2022-08-11T00:38:43.073Z,4.50
2022-08-11T00:41:00.175Z,4.63
2022-08-11T00:43:20.156Z,4.32
2022-08-11T00:45:38.086Z,4.40
2022-08-11T00:47:55.482Z,4.55
2022-08-11T00:50:17.199Z,4.35
2022-08-11T00:52:34.190Z,4.60
2022-08-11T00:54:52.477Z,4.38
2022-08-11T00:57:37.079Z,4.78
2022-08-11T00:59:48.611Z,4.70
2022-08-11T01:02:05.583Z,4.80
2022-08-11T01:04:22.576Z,4.88
2022-08-11T01:06:39.887Z,4.60
2022-08-11T01:08:57.040Z,4.78
2022-08-11T01:11:15.115Z,4.60
2022-08-11T01:13:32.064Z,4.70
2022-08-11T01:15:57.484Z,4.63
2022-08-11T01:18:14.936Z,4.60
2022-08-11T01:20:48.517Z,5.10
2022-08-11T01:23:07.368Z,4.65
2022-08-11T01:25:24.455Z,5.00
2022-08-11T01:27:41.769Z,4.70
2022-08-11T01:29:58.868Z,5.10
2022-08-11T01:32:15.834Z,4.72
2022-08-11T01:34:33.973Z,4.60
2022-08-11T01:36:56.534Z,5.00
2022-08-11T01:39:18.636Z,5.07
2022-08-11T01:41:35.909Z,4.72
2022-08-11T01:43:53.316Z,5.10
2022-08-11T01:46:10.394Z,4.75
2022-08-11T01:48:27.851Z,4.78
2022-08-11T01:50:45.333Z,5.25
2022-08-11T01:53:02.359Z,5.43
2022-08-11T01:55:19.804Z,5.13
2022-08-11T01:57:36.820Z,4.85
2022-08-11T01:59:54.242Z,5.10
2022-08-11T02:02:11.434Z,4.80
2022-08-11T02:04:37.638Z,4.90
2022-08-11T02:06:55.667Z,4.82
2022-08-11T02:09:12.715Z,5.15
2022-08-11T02:11:30.333Z,5.03
2022-08-11T02:13:47.387Z,4.97
2022-08-11T02:16:06.294Z,5.38
2022-08-11T02:18:26.507Z,5.45
2022-08-11T02:20:44.466Z,5.00
2022-08-11T02:23:01.899Z,5.50
2022-08-11T02:25:19.255Z,5.30
2022-08-11T02:27:36.224Z,5.10
2022-08-11T02:29:53.294Z,5.40
2022-08-11T02:32:25.283Z,5.32
2022-08-11T02:34:59.883Z,5.25
2022-08-11T02:37:23.583Z,5.50
2022-08-11T02:39:40.925Z,5.60
2022-08-11T02:41:58.182Z,5.45
2022-08-11T02:44:15.285Z,5.20
2022-08-11T02:46:32.616Z,4.80
2022-08-11T02:48:49.732Z,5.43
2022-08-11T02:51:07.190Z,5.30
2022-08-11T02:53:24.341Z,5.50
2022-08-11T02:55:48.748Z,5.22
2022-08-11T02:58:16.022Z,5.05
2022-08-11T03:00:32.960Z,5.72
2022-08-11T03:02:50.929Z,5.72
2022-08-11T03:05:08.246Z,5.30
2022-08-11T03:07:28.912Z,5.22
2022-08-11T03:09:46.903Z,5.45
2022-08-11T03:12:04.007Z,5.80
2022-08-11T03:14:21.273Z,5.65
2022-08-11T03:16:38.360Z,5.70
2022-08-11T03:18:55.477Z,5.80
2022-08-11T03:21:12.765Z,5.82
2022-08-11T03:23:30.815Z,5.65
2022-08-11T03:25:48.213Z,5.60
2022-08-11T03:28:05.229Z,5.68
2022-08-11T03:30:22.612Z,5.82
2022-08-11T03:32:39.753Z,5.60
2022-08-11T03:34:56.858Z,5.60
2022-08-11T03:37:16.506Z,6.10
2022-08-11T03:39:34.792Z,5.90
2022-08-11T03:42:04.200Z,5.72
2022-08-11T03:44:24.089Z,5.72
2022-08-11T03:46:41.038Z,6.00
2022-08-11T03:48:58.055Z,5.50
2022-08-11T03:51:16.351Z,6.07
2022-08-11T03:53:33.690Z,6.22
2022-08-11T03:55:50.806Z,6.03
2022-08-11T03:58:07.893Z,5.97
2022-08-11T04:00:24.880Z,5.95
2022-08-11T04:02:42.209Z,5.80
2022-08-11T04:04:59.407Z,5.80
2022-08-11T04:07:17.787Z,6.20
2022-08-11T04:09:37.559Z,5.53
2022-08-11T04:11:54.863Z,5.95
2022-08-11T04:14:11.947Z,6.05
2022-08-11T04:16:28.964Z,6.22
2022-08-11T04:18:45.960Z,5.80
2022-08-11T04:21:03.365Z,6.00
2022-08-11T04:24:34.740Z,5.93
2022-08-11T04:25:57.982Z,6.43
2022-08-11T04:28:29.190Z,6.20
2022-08-11T04:30:48.408Z,6.28
2022-08-11T04:33:05.375Z,5.85
2022-08-11T04:35:22.724Z,6.40
2022-08-11T04:37:40.025Z,6.20
2022-08-11T04:39:59.445Z,6.40
2022-08-11T04:42:16.516Z,6.15
2022-08-11T04:44:33.747Z,6.10
2022-08-11T04:46:50.791Z,6.13
2022-08-11T04:49:07.743Z,6.25
2022-08-11T04:51:25.072Z,6.10
2022-08-11T04:53:42.082Z,5.97
2022-08-11T04:55:59.156Z,6.07
2022-08-11T04:58:16.436Z,6.28
2022-08-11T05:00:33.703Z,6.38
2022-08-11T05:02:50.736Z,6.25
2022-08-11T05:05:07.968Z,6.22
2022-08-11T05:07:24.941Z,6.07
2022-08-11T05:09:42.003Z,6.10
2022-08-11T05:12:01.783Z,6.03
2022-08-11T05:14:19.132Z,6.60
2022-08-11T05:16:39.934Z,6.28
2022-08-11T05:18:56.925Z,6.32
2022-08-11T05:21:14.304Z,6.28
2022-08-11T05:23:31.364Z,6.43
2022-08-11T05:26:45.381Z,6.30
2022-08-11T05:28:25.989Z,6.55
2022-08-11T05:30:43.050Z,6.30
2022-08-11T05:33:02.228Z,6.25
2022-08-11T05:36:01.948Z,6.65
2022-08-11T05:37:56.801Z,6.25
2022-08-11T05:40:13.756Z,6.22
2022-08-11T05:42:31.054Z,5.93
2022-08-11T05:44:48.507Z,6.53
2022-08-11T05:47:05.899Z,5.90
2022-08-11T05:49:22.857Z,6.22
2022-08-11T05:51:39.858Z,6.07
2022-08-11T05:54:28.259Z,6.03
2022-08-11T05:56:47.396Z,6.13
2022-08-11T05:59:05.434Z,5.75
2022-08-11T06:01:22.818Z,5.88
2022-08-11T06:03:39.785Z,6.13
2022-08-11T06:06:15.744Z,5.75
2022-08-11T06:08:32.861Z,5.85
2022-08-11T06:10:49.912Z,5.68
2022-08-11T06:13:07.080Z,5.72
2022-08-11T06:15:24.115Z,5.35
2022-08-11T06:17:41.391Z,5.90
2022-08-11T06:20:05.566Z,5.63
2022-08-11T06:22:24.498Z,5.28
2022-08-11T06:24:42.357Z,5.53
2022-08-11T06:27:12.431Z,5.00
2022-08-11T06:29:37.473Z,5.03
2022-08-11T06:31:55.256Z,5.00
2022-08-11T06:34:12.594Z,5.15
2022-08-11T06:36:44.507Z,4.82
2022-08-11T06:39:01.595Z,5.70
2022-08-11T06:41:18.977Z,5.15
2022-08-11T06:43:36.051Z,5.05
2022-08-11T06:45:53.036Z,5.35
2022-08-11T06:48:10.035Z,5.32
2022-08-11T06:50:27.072Z,5.18
2022-08-11T06:52:44.494Z,5.50
2022-08-11T06:55:01.591Z,4.82
2022-08-11T06:57:33.906Z,5.00
2022-08-11T06:59:50.933Z,5.07
2022-08-11T07:02:08.272Z,4.80
2022-08-11T07:04:25.539Z,4.95
2022-08-11T07:06:50.647Z,5.05
2022-08-11T07:09:08.290Z,5.20
2022-08-11T07:11:25.391Z,4.93
2022-08-11T07:13:45.545Z,4.70
2022-08-11T07:16:12.389Z,4.60
2022-08-11T07:18:30.517Z,5.18
2022-08-11T07:20:47.762Z,4.88
2022-08-11T07:23:04.716Z,4.70
2022-08-11T07:25:21.729Z,4.60
2022-08-11T07:27:38.786Z,4.88
2022-08-11T07:29:55.863Z,4.60
2022-08-11T07:32:13.060Z,4.40
2022-08-11T07:34:30.136Z,4.47
2022-08-11T07:36:48.099Z,4.45
2022-08-11T07:39:05.063Z,4.35
2022-08-11T07:41:23.377Z,4.15
2022-08-11T07:43:40.338Z,4.35
2022-08-11T07:45:57.577Z,4.60
2022-08-11T07:48:14.891Z,4.40
2022-08-11T07:50:31.834Z,4.43
2022-08-11T07:52:52.780Z,4.03
2022-08-11T07:55:11.948Z,3.90
2022-08-11T07:57:47.243Z,4.13
2022-08-11T08:00:05.764Z,4.47
2022-08-11T08:02:23.847Z,4.38
2022-08-11T08:04:47.477Z,4.10
2022-08-11T08:07:04.635Z,3.78
2022-08-11T08:09:23.638Z,4.50
2022-08-11T08:11:40.676Z,3.75
2022-08-11T08:13:57.907Z,3.67
2022-08-11T08:16:14.990Z,3.60
2022-08-11T08:18:32.515Z,3.50
2022-08-11T08:20:49.486Z,3.20
2022-08-11T08:23:07.738Z,3.47
2022-08-11T08:25:24.866Z,3.05
2022-08-11T08:27:41.931Z,3.10
2022-08-11T08:29:58.948Z,3.40
2022-08-11T08:32:15.920Z,3.40
2022-08-11T08:34:34.003Z,3.28
2022-08-11T08:36:51.311Z,3.28
2022-08-11T08:39:10.850Z,3.10
2022-08-11T08:41:28.108Z,3.60
2022-08-11T08:43:48.752Z,3.58
2022-08-11T08:46:06.487Z,3.42
2022-08-11T08:48:23.978Z,3.50
2022-08-11T08:50:40.903Z,2.80
2022-08-11T08:53:04.116Z,3.13
2022-08-11T08:55:21.128Z,3.30
2022-08-11T08:57:39.710Z,3.42
2022-08-11T08:59:58.533Z,3.22
2022-08-11T09:02:16.902Z,3.28
2022-08-11T09:04:34.072Z,3.20
2022-08-11T09:06:52.372Z,3.60
2022-08-11T09:09:10.273Z,2.97
2022-08-11T09:11:27.247Z,3.15
2022-08-11T09:13:44.655Z,3.25
2022-08-11T09:16:03.552Z,3.40
2022-08-11T09:18:20.790Z,3.08
2022-08-11T09:20:38.059Z,3.30
2022-08-11T09:23:29.546Z,3.28
2022-08-11T09:25:33.017Z,3.40
2022-08-11T09:27:51.280Z,3.05
2022-08-11T09:30:08.643Z,3.10
2022-08-11T09:32:26.856Z,2.65
2022-08-11T09:34:44.195Z,2.78
2022-08-11T09:37:01.247Z,2.70
2022-08-11T09:39:19.320Z,2.65
2022-08-11T09:42:00.969Z,2.80
2022-08-11T09:44:13.653Z,2.40
2022-08-11T09:46:30.694Z,2.45
2022-08-11T09:48:48.016Z,2.45
2022-08-11T09:51:04.949Z,2.65
2022-08-11T09:53:37.468Z,2.53
2022-08-11T09:55:57.929Z,2.33
2022-08-11T09:58:42.725Z,2.53
2022-08-11T10:00:53.445Z,2.72
2022-08-11T10:03:11.473Z,2.50
2022-08-11T10:05:28.699Z,2.83
2022-08-11T10:07:45.987Z,2.88
2022-08-11T10:10:04.116Z,2.53
2022-08-11T10:12:21.098Z,3.00
2022-08-11T10:14:42.538Z,2.70
2022-08-11T10:17:01.777Z,2.70
2022-08-11T10:19:18.898Z,2.70
2022-08-11T10:21:36.891Z,2.75
2022-08-11T10:24:01.004Z,2.40
2022-08-11T10:26:22.922Z,2.67
2022-08-11T10:29:02.182Z,2.40
2022-08-11T10:31:17.235Z,2.63
2022-08-11T10:33:37.926Z,2.53
2022-08-11T10:35:55.574Z,2.40
2022-08-11T10:38:12.947Z,2.40
2022-08-11T10:40:30.203Z,2.42
2022-08-11T10:42:57.916Z,2.80
2022-08-11T10:45:15.226Z,2.72
2022-08-11T10:47:32.531Z,2.70
2022-08-11T10:49:49.515Z,2.65
2022-08-11T10:52:06.638Z,2.85
2022-08-11T10:54:25.185Z,3.10
2022-08-11T10:56:42.475Z,3.00
2022-08-11T10:59:03.455Z,2.40
2022-08-11T11:01:21.932Z,2.50
2022-08-11T11:03:39.241Z,2.67
2022-08-11T11:06:12.665Z,2.50
2022-08-11T11:08:33.331Z,2.97
2022-08-11T11:10:50.263Z,2.65
2022-08-11T11:13:07.221Z,2.90
2022-08-11T11:15:24.438Z,2.80
2022-08-11T11:17:41.378Z,2.88
2022-08-11T11:19:58.652Z,3.25
2022-08-11T11:22:15.668Z,3.17
2022-08-11T11:24:32.925Z,2.78
2022-08-11T11:26:50.267Z,3.05
2022-08-11T11:29:07.609Z,2.80
2022-08-11T11:31:24.572Z,2.70
2022-08-11T11:34:06.948Z,2.85
2022-08-11T11:36:18.981Z,2.80
2022-08-11T11:38:37.738Z,3.17
2022-08-11T11:40:55.132Z,2.88
2022-08-11T11:43:12.380Z,2.92
2022-08-11T11:45:29.442Z,3.03
2022-08-11T11:47:46.499Z,3.20
2022-08-11T11:50:03.633Z,3.03
2022-08-11T11:52:20.634Z,2.90
2022-08-11T11:54:38.569Z,3.22
2022-08-11T11:56:55.595Z,2.80
2022-08-11T11:59:12.867Z,2.75
2022-08-11T12:01:32.068Z,2.83
2022-08-11T12:03:49.013Z,3.08
2022-08-11T12:06:06.251Z,2.63
2022-08-11T12:08:27.231Z,2.80
2022-08-11T12:10:45.090Z,2.90
2022-08-11T12:13:02.408Z,2.70
2022-08-11T12:16:03.657Z,2.90
2022-08-11T12:17:57.263Z,3.30
2022-08-11T12:20:31.774Z,3.08
2022-08-11T12:22:51.856Z,3.33
2022-08-11T12:25:10.450Z,3.13
2022-08-11T12:27:28.727Z,3.00
2022-08-11T12:29:52.888Z,3.00
2022-08-11T12:32:12.318Z,2.95
2022-08-11T12:34:29.633Z,3.53
2022-08-11T12:36:46.811Z,3.00
2022-08-11T12:39:06.147Z,3.10
2022-08-11T12:41:40.582Z,2.85
2022-08-11T12:43:57.704Z,2.83
2022-08-11T12:46:17.694Z,3.10
2022-08-11T12:48:59.078Z,2.90
2022-08-11T12:51:12.512Z,3.00
2022-08-11T12:53:31.703Z,3.00
2022-08-11T12:56:07.446Z,2.78
2022-08-11T12:58:26.195Z,2.70
2022-08-11T13:00:43.548Z,2.95
2022-08-11T13:03:00.873Z,3.03
2022-08-11T13:05:18.205Z,2.72
2022-08-11T13:07:49.984Z,2.95
2022-08-11T13:10:16.915Z,2.90
2022-08-11T13:12:35.373Z,3.15
2022-08-11T13:14:52.795Z,3.30
2022-08-11T13:17:09.972Z,3.42
2022-08-11T13:19:27.291Z,3.33
2022-08-11T13:21:44.204Z,3.20
2022-08-11T13:24:03.310Z,2.80
2022-08-11T13:26:24.866Z,2.90
2022-08-11T13:28:57.852Z,3.03
2022-08-11T13:31:14.789Z,3.10
2022-08-11T13:33:32.783Z,3.08
2022-08-11T13:35:49.869Z,3.20
2022-08-11T13:38:18.660Z,3.03
2022-08-11T13:40:54.844Z,3.03
2022-08-11T13:43:13.239Z,3.50
2022-08-11T13:45:33.043Z,3.40
2022-08-11T13:47:50.312Z,3.60
2022-08-11T13:50:07.391Z,3.22
2022-08-11T13:52:24.507Z,3.78
2022-08-11T13:54:41.471Z,3.38
2022-08-11T13:56:58.533Z,3.45
2022-08-11T13:59:15.978Z,3.65
2022-08-11T14:02:21.494Z,3.53
2022-08-11T14:04:30.982Z,3.60
2022-08-11T14:06:48.035Z,3.10
2022-08-11T14:09:05.017Z,3.08
2022-08-11T14:12:23.867Z,3.45
2022-08-11T14:14:00.333Z,3.55
2022-08-11T14:16:17.396Z,3.70
2022-08-11T14:18:34.764Z,3.40
2022-08-11T14:20:53.113Z,3.20
2022-08-11T14:23:10.416Z,3.55
2022-08-11T14:25:59.571Z,3.30
2022-08-11T14:28:33.491Z,3.47
2022-08-11T14:30:41.629Z,3.38
2022-08-11T14:32:59.809Z,3.38
2022-08-11T14:35:17.186Z,3.40
2022-08-11T14:37:34.423Z,3.53
2022-08-11T14:39:51.752Z,3.50
2022-08-11T14:42:13.226Z,3.45
2022-08-11T14:44:30.622Z,3.88
2022-08-11T14:46:47.677Z,3.65
2022-08-11T14:49:04.647Z,4.03
2022-08-11T14:51:21.659Z,3.90
2022-08-11T14:53:41.180Z,3.90
2022-08-11T14:56:16.023Z,3.70
2022-08-11T14:58:33.100Z,3.92
2022-08-11T15:00:50.645Z,4.03
2022-08-11T15:03:08.856Z,3.55
2022-08-11T15:05:26.822Z,3.70
2022-08-11T15:07:43.841Z,3.95
2022-08-11T15:10:16.284Z,4.07
2022-08-11T15:12:34.218Z,3.83
2022-08-11T15:14:55.896Z,3.67
2022-08-11T15:17:13.357Z,3.78
2022-08-11T15:19:41.082Z,3.85
2022-08-11T15:21:58.289Z,3.78
2022-08-11T15:24:15.295Z,3.60
2022-08-11T15:26:32.639Z,3.70
2022-08-11T15:28:50.797Z,3.78
2022-08-11T15:31:08.039Z,3.60
2022-08-11T15:33:25.489Z,3.72
2022-08-11T15:35:42.628Z,3.47
2022-08-11T15:37:59.956Z,3.80
2022-08-11T15:40:30.171Z,4.13
2022-08-11T15:42:49.193Z,3.92
2022-08-11T15:45:06.459Z,3.75
2022-08-11T15:47:23.557Z,3.70
2022-08-11T15:50:10.759Z,4.07
2022-08-11T15:52:18.152Z,3.70
2022-08-11T15:54:35.195Z,3.90
2022-08-11T15:56:52.491Z,4.40
2022-08-11T15:59:10.610Z,4.20
2022-08-11T16:01:46.772Z,3.88
2022-08-11T16:04:07.693Z,3.80
2022-08-11T16:06:25.876Z,4.00
2022-08-11T16:08:44.901Z,3.97
2022-08-11T16:11:01.973Z,4.05
2022-08-11T16:13:20.888Z,4.10
2022-08-11T16:15:37.925Z,3.80
2022-08-11T16:17:54.994Z,3.78
2022-08-11T16:20:12.287Z,4.05
2022-08-11T16:22:29.291Z,3.80
2022-08-11T16:27:01.641Z,3.67
2022-08-11T16:27:32.129Z,3.90
2022-08-11T16:29:49.491Z,3.90
2022-08-11T16:32:07.694Z,3.60
2022-08-11T16:34:25.178Z,3.70
2022-08-11T16:36:42.190Z,3.92
2022-08-11T16:39:00.090Z,3.90
2022-08-11T16:41:17.023Z,4.10
2022-08-11T16:43:34.402Z,4.20
2022-08-11T16:45:51.665Z,4.00
2022-08-11T16:48:35.194Z,3.97
2022-08-11T16:50:47.599Z,3.97
2022-08-11T16:53:04.635Z,4.30
2022-08-11T16:55:51.294Z,3.80
2022-08-11T16:57:58.722Z,3.78
2022-08-11T17:00:15.759Z,4.15
2022-08-11T17:02:33.025Z,3.88
2022-08-11T17:04:50.248Z,4.65
2022-08-11T17:07:23.588Z,4.28
2022-08-11T17:09:44.426Z,3.78
2022-08-11T17:12:01.549Z,4.50
2022-08-11T17:14:18.902Z,4.20
2022-08-11T17:16:53.595Z,3.70
2022-08-11T17:19:10.575Z,4.00
2022-08-11T17:21:27.780Z,4.15
2022-08-11T17:23:44.797Z,3.92
2022-08-11T17:26:04.247Z,4.07
2022-08-11T17:28:24.415Z,4.05
2022-08-11T17:30:42.551Z,3.95
2022-08-11T17:33:00.132Z,3.95
2022-08-11T17:35:18.277Z,3.72
2022-08-11T17:37:36.446Z,3.55
2022-08-11T17:39:53.607Z,4.05
2022-08-11T17:42:11.750Z,3.67
2022-08-11T17:44:29.832Z,3.80
2022-08-11T17:46:47.151Z,3.92
2022-08-11T17:49:04.411Z,3.60
2022-08-11T17:51:22.090Z,3.55
2022-08-11T17:53:39.382Z,3.72
2022-08-11T17:55:57.718Z,3.55
2022-08-11T17:58:15.402Z,3.80
2022-08-11T18:00:33.398Z,3.33
2022-08-11T18:02:50.463Z,3.70
2022-08-11T18:05:12.750Z,3.60
2022-08-11T18:07:30.449Z,4.13
2022-08-11T18:09:47.530Z,3.78
2022-08-11T18:12:10.057Z,3.97
2022-08-11T18:14:28.569Z,3.70
2022-08-11T18:16:46.503Z,3.47
2022-08-11T18:19:03.475Z,3.60
2022-08-11T18:21:20.519Z,3.80
2022-08-11T18:23:45.741Z,4.45
2022-08-11T18:26:07.104Z,4.22
2022-08-11T18:28:26.216Z,3.72
2022-08-11T18:30:45.126Z,4.50
2022-08-11T18:33:39.817Z,3.67
2022-08-11T18:35:39.321Z,3.33
2022-08-11T18:37:56.568Z,4.47
2022-08-11T18:40:13.917Z,3.90
2022-08-11T18:42:30.906Z,3.50
2022-08-11T18:44:47.862Z,3.70
2022-08-11T18:47:08.046Z,3.35
2022-08-11T18:49:31.686Z,3.70
2022-08-11T18:52:05.066Z,3.78
2022-08-11T18:54:23.199Z,3.53
2022-08-11T18:56:40.242Z,3.42
2022-08-11T18:58:58.722Z,3.72
2022-08-11T19:01:16.062Z,3.63
2022-08-11T19:03:43.306Z,3.50
2022-08-11T19:06:37.693Z,3.67
2022-08-11T19:08:43.083Z,4.10
2022-08-11T19:11:00.420Z,4.00
2022-08-11T19:13:17.399Z,3.70
2022-08-11T19:15:34.465Z,4.40
2022-08-11T19:17:51.786Z,4.47
2022-08-11T19:20:08.742Z,4.43
2022-08-11T19:22:25.757Z,4.10
2022-08-11T19:24:42.868Z,4.35
2022-08-11T19:27:00.622Z,4.35
2022-08-11T19:30:07.057Z,4.78
2022-08-11T19:31:54.593Z,4.80
2022-08-11T19:34:11.584Z,4.32
2022-08-11T19:36:28.915Z,4.20
2022-08-11T19:38:46.156Z,4.50
2022-08-11T19:41:03.215Z,3.80
2022-08-11T19:43:23.795Z,4.10
2022-08-11T19:45:43.417Z,4.80
2022-08-11T19:48:30.782Z,4.53
2022-08-11T19:50:44.643Z,4.60
2022-08-11T19:53:02.604Z,5.40
2022-08-11T19:55:33.953Z,5.18
2022-08-11T19:57:51.061Z,5.03
2022-08-11T20:00:07.990Z,5.20
2022-08-11T20:02:25.192Z,5.18
2022-08-11T20:04:43.247Z,5.40
2022-08-11T20:07:03.043Z,5.20
2022-08-11T20:09:20.057Z,5.10
2022-08-11T20:11:37.396Z,4.68
2022-08-11T20:13:54.452Z,4.50
2022-08-11T20:16:11.581Z,4.60
2022-08-11T20:18:28.593Z,4.53
2022-08-11T20:20:46.813Z,4.05
2022-08-11T20:23:06.130Z,4.40
2022-08-11T20:25:23.118Z,4.10
2022-08-11T20:27:40.445Z,4.18
2022-08-11T20:29:57.497Z,4.35
2022-08-11T20:32:14.466Z,4.10
2022-08-11T20:34:31.542Z,4.05
2022-08-11T20:36:54.545Z,4.50
2022-08-11T20:39:11.858Z,4.50
2022-08-11T20:41:28.869Z,4.28
2022-08-11T20:44:06.709Z,4.55
2022-08-11T20:46:22.919Z,4.72
2022-08-11T20:48:41.693Z,4.47
2022-08-11T20:50:59.021Z,4.30
2022-08-11T20:53:16.152Z,4.20
2022-08-11T20:55:51.684Z,4.30
2022-08-11T20:58:17.816Z,4.25
2022-08-11T21:00:39.191Z,4.53
2022-08-11T21:02:56.887Z,3.83
2022-08-11T21:06:04.720Z,4.22
2022-08-11T21:07:55.535Z,4.55
2022-08-11T21:10:23.451Z,3.90
2022-08-11T21:12:41.413Z,4.32
2022-08-11T21:14:58.666Z,4.63
2022-08-11T21:17:27.209Z,4.50
2022-08-11T21:20:01.302Z,4.28
2022-08-11T21:22:28.058Z,4.13
2022-08-11T21:24:48.018Z,4.60
2022-08-11T21:27:05.422Z,4.05
2022-08-11T21:29:22.384Z,4.25
2022-08-11T21:31:39.544Z,4.32
2022-08-11T21:33:56.636Z,4.75
2022-08-11T21:36:13.737Z,4.40
2022-08-11T21:38:30.904Z,4.57
2022-08-11T21:40:48.260Z,4.18
2022-08-11T21:43:05.311Z,4.53
2022-08-11T21:45:22.571Z,4.50
2022-08-11T21:47:43.453Z,4.70
2022-08-11T21:50:01.208Z,4.60
2022-08-11T21:52:18.325Z,4.40
2022-08-11T21:54:35.610Z,4.05
2022-08-11T21:56:54.176Z,4.68
2022-08-11T21:59:11.885Z,4.28
2022-08-11T22:01:28.892Z,4.35
2022-08-11T22:03:51.671Z,4.65
2022-08-11T22:06:08.780Z,4.50
2022-08-11T22:08:26.086Z,4.10
2022-08-11T22:10:43.275Z,4.80
2022-08-11T22:13:00.256Z,4.10
2022-08-11T22:15:17.480Z,4.68
2022-08-11T22:17:34.462Z,4.55
2022-08-11T22:19:51.510Z,4.50
2022-08-11T22:22:09.527Z,4.32
2022-08-11T22:24:30.239Z,4.75
2022-08-11T22:26:47.798Z,4.47
2022-08-11T22:29:04.714Z,4.60
2022-08-11T22:31:21.766Z,4.70
2022-08-11T22:33:42.063Z,4.70
2022-08-11T22:36:15.997Z,4.97
2022-08-11T22:38:33.580Z,4.57
2022-08-11T22:40:52.217Z,4.68
2022-08-11T22:43:09.765Z,4.78
2022-08-11T22:45:27.004Z,4.57
2022-08-11T22:47:44.916Z,4.72
2022-08-11T22:50:02.313Z,4.40
2022-08-11T22:52:19.357Z,4.57
2022-08-11T22:54:36.507Z,4.53
2022-08-11T22:56:53.704Z,4.57
2022-08-11T22:59:10.670Z,4.32
2022-08-11T23:01:31.215Z,4.25
2022-08-11T23:03:48.363Z,4.70
2022-08-11T23:06:05.389Z,4.50
2022-08-11T23:08:22.726Z,4.90
2022-08-11T23:10:39.692Z,4.70
2022-08-11T23:12:56.970Z,4.65
2022-08-11T23:15:16.132Z,4.70
2022-08-11T23:17:33.163Z,4.65
2022-08-11T23:20:09.145Z,5.13
2022-08-11T23:22:36.975Z,4.63
2022-08-11T23:25:04.719Z,4.72
2022-08-11T23:27:21.656Z,4.82
2022-08-11T23:29:38.780Z,4.63
2022-08-11T23:31:55.821Z,4.93
2022-08-11T23:34:41.561Z,4.57
2022-08-11T23:36:50.189Z,5.22
2022-08-11T23:39:07.287Z,5.10
2022-08-11T23:41:24.305Z,4.95
2022-08-11T23:43:41.649Z,4.90
2022-08-11T23:45:58.600Z,5.22
2022-08-11T23:48:15.740Z,5.47
2022-08-11T23:50:32.855Z,4.47
2022-08-11T23:52:52.056Z,5.35
2022-08-11T23:55:09.479Z,5.10
2022-08-11T23:57:26.492Z,4.78
2022-08-11T23:59:43.538Z,4.82
